createdAt,value
2024-05-09T07:11:25.280Z,97496.44
2024-05-09T07:13:33.144Z,97510.63
2024-05-09T07:14:36.144Z,97508.84
2024-05-09T07:15:39.970Z,97504.16
2024-05-09T07:16:41.580Z,97508.66
2024-05-09T07:17:43.341Z,97503.09
2024-05-09T07:18:45.312Z,97503.97
2024-05-09T07:19:47.050Z,97503.19
2024-05-09T07:20:50.111Z,97502.56
2024-05-09T07:21:52.224Z,97507.31
2024-05-09T07:22:53.783Z,97498.66
2024-05-09T07:23:55.400Z,97501.81
2024-05-09T07:24:56.983Z,97505.53
2024-05-09T07:25:58.721Z,97499.81
2024-05-09T07:27:00.284Z,97494.47
2024-05-09T07:28:01.863Z,97495.63
2024-05-09T07:29:03.398Z,97497.69
2024-05-09T07:30:07.143Z,97504.22
2024-05-09T07:31:09.557Z,97503.56
2024-05-09T07:32:11.177Z,97502.19
2024-05-09T07:33:17.887Z,97502.16
2024-05-09T07:34:19.905Z,97500.19
2024-05-09T07:35:22.544Z,97500.19
2024-05-09T07:36:24.374Z,97495.59
2024-05-09T07:37:26.005Z,97490.84
2024-05-09T07:38:27.645Z,97497.13
2024-05-09T07:39:29.466Z,97499.34
2024-05-09T07:40:35.993Z,97494.91
2024-05-09T07:41:38.639Z,97501.38
2024-05-09T07:42:40.316Z,97493.31
2024-05-09T07:43:41.847Z,97480.63
2024-05-09T07:44:43.380Z,97494.50
2024-05-09T07:45:52.232Z,97493.53
2024-05-09T07:54:28.703Z,97490.78
2024-05-09T07:55:30.694Z,97475.81
2024-05-09T07:58:34.125Z,97493.69
2024-05-09T07:59:37.809Z,97485.34
2024-05-09T08:02:39.287Z,97483.72
2024-05-09T08:03:41.092Z,97488.66
2024-05-09T08:06:27.407Z,97476.72
2024-05-09T08:07:29.381Z,97476.50
2024-05-09T08:10:15.320Z,97470.78
2024-05-09T08:13:08.773Z,97474.28
2024-05-09T08:15:59.564Z,97477.06
2024-05-09T08:17:01.175Z,97473.53
2024-05-09T08:19:40.708Z,97468.41
2024-05-09T08:20:42.909Z,97477.78
2024-05-09T08:23:19.461Z,97463.75
2024-05-09T08:24:20.967Z,97466.66
2024-05-09T08:26:57.596Z,97465.03
2024-05-09T08:29:44.670Z,97462.94
2024-05-09T08:32:32.289Z,97452.34
2024-05-09T08:35:17.341Z,97466.69
2024-05-09T08:37:58.795Z,97449.34
2024-05-09T08:40:41.743Z,97473.78
2024-05-09T08:41:48.799Z,97470.06
2024-05-09T08:44:14.936Z,97461.16
2024-05-09T08:45:17.639Z,97461.88
2024-05-09T08:47:41.160Z,97467.56
2024-05-09T08:48:45.689Z,97463.59
2024-05-09T08:51:08.896Z,97459.66
2024-05-09T08:52:10.618Z,97469.94
2024-05-09T08:54:34.664Z,97469.75
2024-05-09T08:55:40.704Z,97469.34
2024-05-09T08:58:07.189Z,97466.44
2024-05-09T08:59:13.413Z,97475.56
2024-05-09T09:01:37.832Z,97467.44
2024-05-09T09:02:40.053Z,97466.63
2024-05-09T09:05:03.109Z,97452.38
2024-05-09T09:06:14.491Z,97461.84
2024-05-09T09:08:25.868Z,97458.84
2024-05-09T09:09:27.934Z,97461.91
2024-05-09T09:11:40.171Z,97462.97
2024-05-09T09:13:49.689Z,97464.78
2024-05-09T09:15:59.294Z,97457.75
2024-05-09T09:17:11.611Z,97461.19
2024-05-09T09:19:26.585Z,97460.34
2024-05-09T09:20:35.661Z,97444.41
2024-05-09T09:22:49.967Z,97458.81
2024-05-09T09:23:51.522Z,97460.44
2024-05-09T09:26:00.326Z,97447.47
2024-05-09T09:27:01.934Z,97461.75
2024-05-09T09:29:08.171Z,97459.63
2024-05-09T09:30:22.921Z,97461.97
2024-05-09T09:31:31.471Z,97466.00
2024-05-09T09:35:01.234Z,97456.22
2024-05-09T09:38:36.811Z,97461.13
2024-05-09T09:39:39.978Z,97464.38
2024-05-09T09:41:47.747Z,97453.28
2024-05-09T09:42:50.168Z,97461.84
2024-05-09T09:43:53.547Z,97456.22
2024-05-09T09:45:04.329Z,97459.13
2024-05-09T09:46:11.775Z,97455.94
2024-05-09T09:47:16.345Z,97461.34
2024-05-09T09:48:20.016Z,97458.63
2024-05-09T09:49:23.973Z,97449.69
2024-05-09T09:50:33.331Z,97446.56
2024-05-09T09:51:36.944Z,97453.28
2024-05-09T09:52:38.872Z,97450.75
2024-05-09T09:53:42.478Z,97459.38
2024-05-09T09:54:45.093Z,97457.66
2024-05-09T09:56:52.343Z,97452.09
2024-05-09T09:57:56.178Z,97456.50
2024-05-09T09:59:00.070Z,97449.13
2024-05-09T10:00:01.727Z,97455.22
2024-05-09T10:01:03.381Z,97457.94
2024-05-09T10:02:05.447Z,97446.31
2024-05-09T10:03:07.219Z,97460.22
2024-05-09T10:04:09.768Z,97454.88
2024-05-09T10:05:11.769Z,97451.81
2024-05-09T10:06:14.144Z,97460.66
2024-05-09T10:07:18.504Z,97447.69
2024-05-09T10:08:23.795Z,97456.66
2024-05-09T10:09:25.952Z,97453.16
2024-05-09T10:10:32.370Z,97450.09
2024-05-09T10:11:39.558Z,97447.44
2024-05-09T10:13:03.206Z,97449.59
2024-05-09T10:14:07.355Z,97447.59
2024-05-09T10:15:09.794Z,97445.63
2024-05-09T10:16:12.055Z,97449.78
2024-05-09T10:17:14.111Z,97445.00
2024-05-09T10:18:15.993Z,97451.38
2024-05-09T10:19:27.972Z,97453.47
2024-05-09T10:20:40.010Z,97434.19
2024-05-09T10:21:46.522Z,97443.34
2024-05-09T10:22:50.378Z,97445.34
2024-05-09T10:24:05.147Z,97431.41
2024-05-09T10:25:07.484Z,97446.22
2024-05-09T10:26:09.079Z,97440.56
2024-05-09T10:27:10.608Z,97444.63
2024-05-09T10:28:12.519Z,97449.91
2024-05-09T10:29:16.041Z,97442.34
2024-05-09T10:30:29.724Z,97437.75
2024-05-09T10:31:39.291Z,97452.03
2024-05-09T10:32:41.087Z,97440.81
2024-05-09T10:33:48.748Z,97437.91
2024-05-09T10:35:15.090Z,97441.94
2024-05-09T10:36:21.412Z,97429.78
2024-05-09T10:37:23.176Z,97426.47
2024-05-09T10:38:24.947Z,97434.47
2024-05-09T10:39:34.581Z,97429.94
2024-05-09T10:40:37.764Z,97421.59
2024-05-09T10:41:39.759Z,97430.63
2024-05-09T10:42:41.941Z,97419.38
2024-05-09T10:43:43.745Z,97430.38
2024-05-09T10:44:45.298Z,97437.25
2024-05-09T10:45:46.861Z,97424.78
2024-05-09T10:46:50.247Z,97426.72
2024-05-09T10:47:52.037Z,97424.22
2024-05-09T10:48:53.990Z,97422.78
2024-05-09T10:49:56.139Z,97406.78
2024-05-09T10:50:57.684Z,97422.50
2024-05-09T10:51:59.212Z,97428.28
2024-05-09T10:53:02.463Z,97421.25
2024-05-09T10:54:03.998Z,97415.78
2024-05-09T10:55:06.256Z,97421.72
2024-05-09T10:56:07.916Z,97420.56
2024-05-09T10:57:09.423Z,97414.31
2024-05-09T10:58:18.007Z,97426.13
2024-05-09T10:59:19.712Z,97412.47
2024-05-09T11:00:27.666Z,97427.97
2024-05-09T11:01:35.374Z,97423.31
2024-05-09T11:02:37.257Z,97423.66
2024-05-09T11:03:40.115Z,97420.25
2024-05-09T11:04:42.220Z,97419.72
2024-05-09T11:05:44.351Z,97420.94
2024-05-09T11:06:46.918Z,97417.03
2024-05-09T11:07:48.671Z,97415.91
2024-05-09T11:08:51.016Z,97419.66
2024-05-09T11:09:53.271Z,97421.25
2024-05-09T11:10:56.125Z,97415.47
2024-05-09T11:11:58.148Z,97412.06
2024-05-09T11:12:59.810Z,97417.34
2024-05-09T11:14:12.028Z,97412.00
2024-05-09T11:15:14.737Z,97397.00
2024-05-09T11:16:21.895Z,97408.25
2024-05-09T11:17:23.612Z,97406.25
2024-05-09T11:18:30.658Z,97406.41
2024-05-09T11:19:38.406Z,97405.94
2024-05-09T11:20:40.158Z,97394.78
2024-05-09T11:21:41.912Z,97402.03
2024-05-09T11:22:43.491Z,97409.50
2024-05-09T11:23:45.233Z,97396.16
2024-05-09T11:24:47.038Z,97399.06
2024-05-09T11:25:52.711Z,97401.69
2024-05-09T11:26:54.236Z,97399.06
2024-05-09T11:28:01.311Z,97392.38
2024-05-09T11:29:02.945Z,97392.56
2024-05-09T11:30:07.253Z,97392.59
2024-05-09T11:31:10.294Z,97398.28
2024-05-09T11:32:13.652Z,97392.13
2024-05-09T11:33:16.943Z,97401.09
2024-05-09T11:34:18.756Z,97392.63
2024-05-09T11:35:20.716Z,97392.31
2024-05-09T11:36:22.226Z,97380.13
2024-05-09T11:37:23.911Z,97391.31
2024-05-09T11:38:25.469Z,97377.13
2024-05-09T11:39:27.451Z,97390.88
2024-05-09T11:40:34.187Z,97386.75
2024-05-09T11:41:36.346Z,97395.72
2024-05-09T11:42:37.943Z,97389.44
2024-05-09T11:43:39.511Z,97389.78
2024-05-09T11:44:41.050Z,97392.53
2024-05-09T11:45:42.647Z,97388.38
2024-05-09T11:46:44.195Z,97384.72
2024-05-09T11:47:46.178Z,97396.25
2024-05-09T11:48:48.224Z,97379.59
2024-05-09T11:49:49.975Z,97385.78
2024-05-09T11:50:51.565Z,97385.56
2024-05-09T11:51:53.153Z,97382.47
2024-05-09T11:52:54.939Z,97389.75
2024-05-09T11:53:56.511Z,97378.94
2024-05-09T11:54:58.614Z,97386.94
2024-05-09T11:56:00.291Z,97385.34
2024-05-09T11:57:01.850Z,97374.72
2024-05-09T11:58:04.387Z,97380.63
2024-05-09T11:59:05.973Z,97377.69
2024-05-09T12:00:11.863Z,97380.13
2024-05-09T12:01:13.540Z,97367.88
2024-05-09T12:02:15.220Z,97364.78
2024-05-09T12:03:16.976Z,97365.66
2024-05-09T12:04:18.935Z,97357.56
2024-05-09T12:05:20.927Z,97363.22
2024-05-09T12:06:22.774Z,97353.50
2024-05-09T12:07:24.434Z,97355.41
2024-05-09T12:08:26.071Z,97349.47
2024-05-09T12:09:27.752Z,97354.97
2024-05-09T12:10:33.739Z,97353.91
2024-05-09T12:11:37.255Z,97345.22
2024-05-09T12:12:38.824Z,97356.94
2024-05-09T12:13:40.339Z,97358.41
2024-05-09T12:14:42.436Z,97354.94
2024-05-09T12:15:44.028Z,97360.34
2024-05-09T12:16:45.633Z,97353.94
2024-05-09T12:17:50.455Z,97366.44
2024-05-09T12:18:52.332Z,97361.44
2024-05-09T12:19:53.937Z,97357.69
2024-05-09T12:20:55.431Z,97360.59
2024-05-09T12:21:57.034Z,97347.09
2024-05-09T12:22:58.775Z,97349.97
2024-05-09T12:24:00.252Z,97342.66
2024-05-09T12:25:04.778Z,97339.13
2024-05-09T12:26:06.399Z,97345.03
2024-05-09T12:27:07.907Z,97348.28
2024-05-09T12:28:09.503Z,97349.13
2024-05-09T12:29:11.114Z,97340.59
2024-05-09T12:30:20.692Z,97338.41
2024-05-09T12:31:29.984Z,97340.97
2024-05-09T12:32:31.654Z,97333.78
2024-05-09T12:33:33.310Z,97332.72
2024-05-09T12:34:34.961Z,97335.34
2024-05-09T12:35:36.564Z,97347.69
2024-05-09T12:36:38.266Z,97342.69
2024-05-09T12:37:39.916Z,97345.81
2024-05-09T12:38:41.699Z,97337.84
2024-05-09T12:39:43.542Z,97346.66
2024-05-09T12:40:45.189Z,97340.56
2024-05-09T12:41:46.800Z,97336.50
2024-05-09T12:42:49.601Z,97337.56
2024-05-09T12:43:51.132Z,97332.84
2024-05-09T12:44:52.817Z,97331.44
2024-05-09T12:45:54.438Z,97343.22
2024-05-09T12:46:55.948Z,97338.38
2024-05-09T12:47:57.662Z,97342.25
2024-05-09T12:48:59.394Z,97335.22
2024-05-09T12:50:01.145Z,97330.72
2024-05-09T12:51:02.773Z,97333.03
2024-05-09T12:52:04.689Z,97327.16
2024-05-09T12:53:06.485Z,97330.59
2024-05-09T12:54:08.063Z,97328.16
2024-05-09T12:55:11.021Z,97325.41
2024-05-09T12:56:12.817Z,97326.09
2024-05-09T12:57:14.318Z,97334.34
2024-05-09T12:58:17.148Z,97335.00
2024-05-09T12:59:19.129Z,97324.94
2024-05-09T13:00:27.736Z,97334.25
2024-05-09T13:01:33.573Z,97319.88
2024-05-09T13:02:35.376Z,97319.75
2024-05-09T13:03:37.227Z,97321.56
2024-05-09T13:04:38.893Z,97326.13
2024-05-09T13:05:44.908Z,97317.84
2024-05-09T13:06:46.991Z,97318.00
2024-05-09T13:07:48.482Z,97323.00
2024-05-09T13:08:50.038Z,97317.16
2024-05-09T13:09:51.572Z,97312.41
2024-05-09T13:10:53.544Z,97315.81
2024-05-09T13:11:55.195Z,97310.28
2024-05-09T13:12:56.734Z,97317.06
2024-05-09T13:13:58.263Z,97313.78
2024-05-09T13:14:59.898Z,97321.88
2024-05-09T13:16:01.495Z,97321.22
2024-05-09T13:17:03.203Z,97318.41
2024-05-09T13:18:05.907Z,97329.63
2024-05-09T13:19:08.241Z,97331.75
2024-05-09T13:20:18.531Z,97326.22
2024-05-09T13:21:24.520Z,97321.97
2024-05-09T13:22:26.017Z,97318.28
2024-05-09T13:23:27.681Z,97319.84
2024-05-09T13:24:29.208Z,97314.13
2024-05-09T13:25:31.006Z,97315.56
2024-05-09T13:26:32.753Z,97312.81
2024-05-09T13:27:34.377Z,97313.81
2024-05-09T13:28:35.921Z,97296.50
2024-05-09T13:29:39.704Z,97309.53
2024-05-09T13:30:42.826Z,97307.75
2024-05-09T13:31:44.429Z,97304.88
2024-05-09T13:32:45.982Z,97305.19
2024-05-09T13:33:47.828Z,97298.72
2024-05-09T13:34:49.573Z,97300.84
2024-05-09T13:35:51.353Z,97309.75
2024-05-09T13:36:53.506Z,97302.97
2024-05-09T13:37:55.095Z,97305.50
2024-05-09T13:38:57.207Z,97296.78
2024-05-09T13:40:00.132Z,97299.34
2024-05-09T13:41:01.652Z,97296.75
2024-05-09T13:42:03.303Z,97288.06
2024-05-09T13:43:05.445Z,97293.88
2024-05-09T13:44:07.088Z,97294.16
2024-05-09T13:45:08.662Z,97287.50
2024-05-09T13:46:10.444Z,97285.44
2024-05-09T13:47:12.445Z,97288.34
2024-05-09T13:48:14.373Z,97279.88
2024-05-09T13:49:17.536Z,97281.97
2024-05-09T13:50:28.012Z,97281.44
2024-05-09T13:51:35.248Z,97271.13
2024-05-09T13:52:36.870Z,97282.06
2024-05-09T13:53:38.406Z,97276.19
2024-05-09T13:54:39.930Z,97276.69
2024-05-09T13:55:41.634Z,97271.78
2024-05-09T13:56:43.176Z,97263.50
2024-05-09T13:57:44.883Z,97274.81
2024-05-09T13:58:46.585Z,97264.03
2024-05-09T13:59:48.118Z,97269.50
2024-05-09T14:00:49.864Z,97267.91
2024-05-09T14:01:52.266Z,97268.22
2024-05-09T14:02:54.367Z,97263.56
2024-05-09T14:03:56.134Z,97266.47
2024-05-09T14:04:58.296Z,97262.22
2024-05-09T14:06:00.208Z,97262.44
2024-05-09T14:07:01.949Z,97256.19
2024-05-09T14:08:03.723Z,97259.13
2024-05-09T14:09:05.302Z,97258.34
2024-05-09T14:10:16.085Z,97259.28
2024-05-09T14:11:24.804Z,97260.72
2024-05-09T14:12:26.390Z,97254.66
2024-05-09T14:13:27.960Z,97250.63
2024-05-09T14:14:29.486Z,97257.03
2024-05-09T14:15:30.984Z,97257.16
2024-05-09T14:16:33.256Z,97251.81
2024-05-09T14:17:35.100Z,97244.03
2024-05-09T14:18:36.873Z,97244.47
2024-05-09T14:19:38.425Z,97245.31
2024-05-09T14:20:39.952Z,97248.34
2024-05-09T14:21:41.471Z,97250.94
2024-05-09T14:22:42.988Z,97238.16
2024-05-09T14:23:44.487Z,97249.94
2024-05-09T14:24:46.039Z,97232.03
2024-05-09T14:25:51.284Z,97232.25
2024-05-09T14:26:53.897Z,97230.41
2024-05-09T14:27:59.453Z,97245.53
2024-05-09T14:29:01.098Z,97240.72
2024-05-09T14:30:04.138Z,97238.97
2024-05-09T14:31:07.226Z,97233.78
2024-05-09T14:32:08.732Z,97237.16
2024-05-09T14:33:11.105Z,97236.75
2024-05-09T14:34:12.970Z,97236.88
2024-05-09T14:35:15.236Z,97235.69
2024-05-09T14:36:16.807Z,97237.34
2024-05-09T14:37:18.356Z,97234.00
2024-05-09T14:38:19.864Z,97227.19
2024-05-09T14:39:21.404Z,97232.81
2024-05-09T14:40:35.878Z,97235.69
2024-05-09T14:41:42.560Z,97234.97
2024-05-09T14:42:44.063Z,97226.53
2024-05-09T14:43:45.772Z,97237.63
2024-05-09T14:44:47.285Z,97219.38
2024-05-09T14:45:48.827Z,97224.50
2024-05-09T14:46:50.537Z,97230.56
2024-05-09T14:47:52.238Z,97224.94
2024-05-09T14:48:53.867Z,97224.53
2024-05-09T14:49:55.632Z,97226.47
2024-05-09T14:50:57.172Z,97223.91
2024-05-09T14:51:58.690Z,97213.41
2024-05-09T14:53:00.347Z,97224.38
2024-05-09T14:54:01.848Z,97219.72
2024-05-09T14:55:03.508Z,97210.50
2024-05-09T14:56:05.615Z,97219.84
2024-05-09T14:57:07.207Z,97226.94
2024-05-09T14:58:10.502Z,97227.22
2024-05-09T14:59:12.247Z,97213.63
2024-05-09T15:00:21.106Z,97217.09
2024-05-09T15:01:28.061Z,97220.28
2024-05-09T15:02:29.766Z,97213.56
2024-05-09T15:03:31.372Z,97204.41
2024-05-09T15:04:33.017Z,97212.09
2024-05-09T15:05:34.763Z,97207.94
2024-05-09T15:06:38.292Z,97201.63
2024-05-09T15:07:43.511Z,97207.84
2024-05-09T15:08:45.064Z,97203.94
2024-05-09T15:09:47.169Z,97209.94
2024-05-09T15:10:51.785Z,97199.78
2024-05-09T15:11:53.885Z,97209.41
2024-05-09T15:12:55.601Z,97193.41
2024-05-09T15:13:57.123Z,97207.50
2024-05-09T15:14:58.665Z,97205.19
2024-05-09T15:16:00.537Z,97201.53
2024-05-09T15:17:02.607Z,97197.34
2024-05-09T15:18:05.315Z,97207.94
2024-05-09T15:19:08.458Z,97201.47
2024-05-09T15:20:16.858Z,97201.91
2024-05-09T15:21:19.080Z,97201.38
2024-05-09T15:22:20.662Z,97203.09
2024-05-09T15:23:22.199Z,97192.16
2024-05-09T15:24:23.742Z,97201.09
2024-05-09T15:25:25.283Z,97186.47
2024-05-09T15:26:26.978Z,97180.69
2024-05-09T15:27:28.537Z,97193.16
2024-05-09T15:28:30.214Z,97188.81
2024-05-09T15:29:32.093Z,97187.16
2024-05-09T15:30:34.735Z,97182.06
2024-05-09T15:31:36.683Z,97182.66
2024-05-09T15:32:38.316Z,97186.16
2024-05-09T15:33:41.749Z,97187.63
2024-05-09T15:34:43.337Z,97193.34
2024-05-09T15:35:46.683Z,97185.50
2024-05-09T15:36:51.115Z,97184.16
2024-05-09T15:37:52.756Z,97176.91
2024-05-09T15:38:55.537Z,97186.66
2024-05-09T15:39:57.139Z,97185.00
2024-05-09T15:40:59.103Z,97177.88
2024-05-09T15:42:00.666Z,97178.09
2024-05-09T15:43:02.565Z,97172.53
2024-05-09T15:44:04.372Z,97180.66
2024-05-09T15:45:06.269Z,97188.84
2024-05-09T15:46:07.877Z,97183.91
2024-05-09T15:47:09.570Z,97185.44
2024-05-09T15:48:11.735Z,97180.47
2024-05-09T15:49:13.647Z,97187.84
2024-05-09T15:50:20.603Z,97185.91
2024-05-09T15:51:30.148Z,97185.50
2024-05-09T15:52:31.789Z,97181.66
2024-05-09T15:53:33.381Z,97183.97
2024-05-09T15:54:34.943Z,97187.47
2024-05-09T15:55:36.552Z,97182.41
2024-05-09T15:56:39.082Z,97182.63
2024-05-09T15:57:40.846Z,97187.41
2024-05-09T15:58:42.913Z,97182.41
2024-05-09T15:59:44.451Z,97174.09
2024-05-09T16:00:47.917Z,97173.09
2024-05-09T16:01:51.503Z,97177.81
2024-05-09T16:02:53.134Z,97172.69
2024-05-09T16:03:54.788Z,97180.97
2024-05-09T16:04:56.465Z,97177.88
2024-05-09T16:05:58.864Z,97174.41
2024-05-09T16:07:00.467Z,97172.59
2024-05-09T16:08:02.469Z,97178.38
2024-05-09T16:09:04.563Z,97171.72
2024-05-09T16:10:07.120Z,97172.59
2024-05-09T16:11:08.961Z,97167.19
2024-05-09T16:12:10.728Z,97166.78
2024-05-09T16:13:12.644Z,97171.31
2024-05-09T16:14:16.057Z,97173.13
2024-05-09T16:15:17.593Z,97167.78
2024-05-09T16:16:19.539Z,97177.84
2024-05-09T16:17:21.238Z,97175.66
2024-05-09T16:18:23.139Z,97161.91
2024-05-09T16:19:24.967Z,97166.63
2024-05-09T16:20:34.954Z,97165.66
2024-05-09T16:21:41.436Z,97173.28
2024-05-09T16:22:43.934Z,97170.78
2024-05-09T16:23:45.461Z,97162.50
2024-05-09T16:24:47.113Z,97164.06
2024-05-09T16:25:48.852Z,97156.19
2024-05-09T16:26:50.412Z,97160.19
2024-05-09T16:27:52.097Z,97163.00
2024-05-09T16:28:53.742Z,97157.22
2024-05-09T16:29:58.065Z,97164.94
2024-05-09T16:31:01.415Z,97163.13
2024-05-09T16:32:03.140Z,97159.47
2024-05-09T16:33:05.789Z,97160.97
2024-05-09T16:34:08.017Z,97164.31
2024-05-09T16:35:09.931Z,97157.63
2024-05-09T16:36:11.518Z,97161.84
2024-05-09T16:37:13.347Z,97160.97
2024-05-09T16:38:15.151Z,97153.56
2024-05-09T16:39:16.738Z,97160.16
2024-05-09T16:40:25.671Z,97163.06
2024-05-09T16:41:36.517Z,97161.53
2024-05-09T16:42:38.088Z,97158.81
2024-05-09T16:43:39.581Z,97160.47
2024-05-09T16:44:41.122Z,97159.69
2024-05-09T16:45:44.711Z,97155.25
2024-05-09T16:46:46.529Z,97153.16
2024-05-09T16:47:48.232Z,97157.59
2024-05-09T16:48:50.744Z,97155.03
2024-05-09T16:49:52.333Z,97159.91
2024-05-09T16:50:53.819Z,97155.84
2024-05-09T16:51:55.367Z,97145.91
2024-05-09T16:52:57.073Z,97156.34
2024-05-09T16:53:58.567Z,97152.00
2024-05-09T16:55:00.137Z,97145.53
2024-05-09T16:56:02.563Z,97158.00
2024-05-09T16:57:04.334Z,97141.09
2024-05-09T16:58:09.187Z,97150.16
2024-05-09T16:59:10.972Z,97135.78
2024-05-09T17:00:18.337Z,97153.44
2024-05-09T17:01:28.604Z,97141.13
2024-05-09T17:02:30.909Z,97148.63
2024-05-09T17:03:32.763Z,97152.84
2024-05-09T17:04:34.474Z,97151.41
2024-05-09T17:05:36.733Z,97148.63
2024-05-09T17:06:38.884Z,97155.47
2024-05-09T17:07:41.169Z,97150.81
2024-05-09T17:08:43.774Z,97154.84
2024-05-09T17:09:45.471Z,97150.31
2024-05-09T17:10:50.713Z,97159.00
2024-05-09T17:11:52.453Z,97160.44
2024-05-09T17:12:53.999Z,97155.50
2024-05-09T17:13:55.491Z,97158.50
2024-05-09T17:14:57.008Z,97164.16
2024-05-09T17:15:58.686Z,97148.06
2024-05-09T17:17:00.317Z,97160.69
2024-05-09T17:26:32.354Z,97153.31
2024-05-09T17:27:33.977Z,97158.47
2024-05-09T17:35:07.684Z,97144.63
2024-05-09T17:41:53.866Z,97161.13
2024-05-09T17:48:06.458Z,97154.63
2024-05-09T17:54:54.213Z,97157.59
